createdAt,value
2023-05-19T00:02:21.463Z,86.23
2023-05-19T00:06:25.493Z,86.72
2023-05-19T00:10:31.651Z,87.87
2023-05-19T00:14:34.261Z,87.39
2023-05-19T00:18:36.433Z,86.42
2023-05-19T00:22:38.533Z,85.89
2023-05-19T00:26:40.626Z,87.27
2023-05-19T00:30:42.952Z,88.25
2023-05-19T00:34:47.727Z,87.65
2023-05-19T00:38:51.274Z,88.93
2023-05-19T00:42:53.405Z,88.89
2023-05-19T00:46:55.782Z,88.40
2023-05-19T00:51:04.007Z,87.59
2023-05-19T00:55:08.040Z,87.80
2023-05-19T00:59:10.232Z,88.60
2023-05-19T01:03:12.427Z,89.32
2023-05-19T01:07:16.363Z,88.83
2023-05-19T01:11:18.465Z,89.48
2023-05-19T01:15:20.815Z,90.00
2023-05-19T01:19:46.819Z,89.94
2023-05-19T01:24:04.133Z,90.31
2023-05-19T01:28:26.040Z,90.41
2023-05-19T01:32:30.289Z,90.43
2023-05-19T01:36:33.796Z,90.87
2023-05-19T01:40:38.054Z,92.11
2023-05-19T01:44:40.557Z,91.69
2023-05-19T01:48:44.673Z,91.48
2023-05-19T01:52:46.775Z,90.74
2023-05-19T01:57:07.267Z,91.50
2023-05-19T02:01:33.940Z,92.01
2023-05-19T02:05:51.125Z,91.58
2023-05-19T02:10:04.390Z,92.38
2023-05-19T02:14:20.365Z,92.24
2023-05-19T02:18:25.073Z,91.89
2023-05-19T02:22:27.226Z,92.26
2023-05-19T02:26:29.261Z,92.00
2023-05-19T02:30:32.017Z,92.50
2023-05-19T02:34:35.751Z,92.54
2023-05-19T02:38:39.976Z,93.20
2023-05-19T02:42:42.037Z,92.69
2023-05-19T02:46:44.543Z,92.53
2023-05-19T02:50:46.615Z,92.58
2023-05-19T02:54:48.647Z,93.48
2023-05-19T02:58:50.709Z,92.67
2023-05-19T03:02:53.031Z,93.04
2023-05-19T03:06:55.606Z,93.67
2023-05-19T03:10:57.669Z,93.42
2023-05-19T03:15:00.734Z,93.76
2023-05-19T03:19:04.102Z,94.69
2023-05-19T03:23:06.492Z,94.80
2023-05-19T03:27:08.981Z,94.24
2023-05-19T03:31:11.116Z,95.14
2023-05-19T03:35:14.186Z,95.20
2023-05-19T03:39:16.906Z,94.98
2023-05-19T03:43:22.032Z,94.05
2023-05-19T03:47:31.690Z,93.85
2023-05-19T03:51:52.117Z,93.62
2023-05-19T03:56:02.066Z,94.02
2023-05-19T04:00:06.157Z,94.70
2023-05-19T04:04:14.252Z,94.59
2023-05-19T04:08:16.330Z,94.15
2023-05-19T04:12:18.375Z,93.34
2023-05-19T04:16:21.269Z,91.94
2023-05-19T04:20:23.449Z,93.59
2023-05-19T04:24:26.177Z,86.12
2023-05-19T04:28:28.949Z,75.05
2023-05-19T04:32:32.397Z,65.81
2023-05-19T04:36:34.895Z,58.98
2023-05-19T04:40:42.247Z,53.92
2023-05-19T04:44:44.358Z,50.87
2023-05-19T04:48:46.690Z,49.03
2023-05-19T04:52:49.036Z,47.17
2023-05-19T04:56:51.142Z,47.25
2023-05-19T05:01:00.334Z,46.40
2023-05-19T05:05:04.288Z,45.91
2023-05-19T05:09:06.825Z,46.06
2023-05-19T05:13:11.205Z,44.07
2023-05-19T05:17:14.494Z,41.80
2023-05-19T05:21:17.905Z,41.22
2023-05-19T05:25:20.963Z,40.32
2023-05-19T05:29:24.057Z,38.93
2023-05-19T05:33:27.333Z,37.84
2023-05-19T05:37:30.699Z,36.58
2023-05-19T05:41:35.482Z,38.10
2023-05-19T05:45:42.961Z,36.72
2023-05-19T05:49:48.195Z,35.19
2023-05-19T05:53:55.336Z,34.89
2023-05-19T05:58:04.902Z,33.33
2023-05-19T06:02:07.140Z,34.04
2023-05-19T06:06:11.029Z,34.06
2023-05-19T06:10:13.202Z,33.53
2023-05-19T06:14:15.594Z,34.75
2023-05-19T06:18:43.697Z,35.30
2023-05-19T06:22:45.795Z,36.32
2023-05-19T06:26:49.497Z,32.98
2023-05-19T06:30:53.264Z,33.39
2023-05-19T06:35:02.489Z,32.00
2023-05-19T06:39:05.638Z,32.26
2023-05-19T06:43:08.209Z,33.08
2023-05-19T06:47:30.548Z,32.69
2023-05-19T06:51:32.783Z,32.86
2023-05-19T06:55:39.194Z,33.71
2023-05-19T06:59:47.359Z,34.45
2023-05-19T07:03:50.408Z,34.18
2023-05-19T07:07:52.689Z,33.81
2023-05-19T07:11:58.981Z,35.70
2023-05-19T07:16:01.146Z,40.66
2023-05-19T07:20:06.817Z,44.04
2023-05-19T07:24:09.076Z,45.44
2023-05-19T07:28:11.283Z,48.06
2023-05-19T07:32:13.480Z,49.44
2023-05-19T07:36:15.806Z,51.05
2023-05-19T07:40:18.287Z,50.87
2023-05-19T07:44:20.385Z,51.07
2023-05-19T07:48:24.551Z,51.66
2023-05-19T07:52:26.808Z,52.53
2023-05-19T07:56:29.576Z,53.16
2023-05-19T08:00:31.966Z,53.15
2023-05-19T08:04:34.292Z,52.83
2023-05-19T08:08:36.786Z,53.14
2023-05-19T08:12:38.953Z,53.92
2023-05-19T08:16:42.958Z,52.88
2023-05-19T08:20:46.297Z,53.69
2023-05-19T08:24:49.729Z,52.52
2023-05-19T08:28:51.806Z,51.85
2023-05-19T08:32:53.915Z,51.36
2023-05-19T08:36:57.702Z,50.77
2023-05-19T08:40:59.898Z,50.37
2023-05-19T08:45:02.577Z,50.78
2023-05-19T08:49:16.607Z,50.23
2023-05-19T08:53:33.026Z,50.87
2023-05-19T08:57:38.226Z,49.63
2023-05-19T09:01:42.821Z,49.63
2023-05-19T09:05:46.422Z,48.40
2023-05-19T09:09:49.142Z,48.15
2023-05-19T09:13:51.380Z,47.96
2023-05-19T09:18:07.157Z,46.46
2023-05-19T09:22:09.407Z,46.70
2023-05-19T09:26:11.642Z,45.53
2023-05-19T09:30:14.764Z,43.06
2023-05-19T09:34:17.493Z,43.33
2023-05-19T09:38:20.104Z,43.84
2023-05-19T09:42:27.031Z,43.77
2023-05-19T09:46:30.080Z,44.09
2023-05-19T09:50:32.783Z,44.73
2023-05-19T09:54:34.923Z,44.17
2023-05-19T09:58:37.374Z,45.48
2023-05-19T10:02:47.315Z,43.93
2023-05-19T10:06:53.549Z,45.04
2023-05-19T10:10:56.699Z,44.96
2023-05-19T10:14:59.434Z,46.05
2023-05-19T10:19:02.595Z,45.99
2023-05-19T10:23:05.377Z,44.07
2023-05-19T10:27:11.919Z,44.89
2023-05-19T10:31:19.361Z,44.01
2023-05-19T10:35:39.231Z,44.92
2023-05-19T10:39:43.651Z,42.78
2023-05-19T10:44:00.060Z,44.66
2023-05-19T10:48:02.303Z,44.37
2023-05-19T10:52:05.792Z,42.81
2023-05-19T10:56:10.105Z,43.33
2023-05-19T11:00:31.834Z,43.24
2023-05-19T11:04:50.351Z,43.86
2023-05-19T11:09:00.877Z,43.82
2023-05-19T11:13:06.577Z,43.38
2023-05-19T11:17:14.307Z,42.38
2023-05-19T11:21:16.718Z,41.77
2023-05-19T11:25:44.538Z,41.64
2023-05-19T11:29:48.422Z,41.02
2023-05-19T11:33:50.709Z,40.08
2023-05-19T11:37:54.552Z,41.87
2023-05-19T11:41:56.651Z,41.12
2023-05-19T11:45:59.362Z,40.80
2023-05-19T11:50:01.779Z,42.29
2023-05-19T11:54:04.458Z,40.22
2023-05-19T11:58:06.532Z,40.46
2023-05-19T12:02:26.102Z,42.74
2023-05-19T12:06:29.869Z,43.15
2023-05-19T12:10:33.852Z,42.52
2023-05-19T12:14:37.527Z,41.83
2023-05-19T12:18:40.409Z,41.95
2023-05-19T12:22:43.290Z,42.80
2023-05-19T12:26:45.443Z,42.00
2023-05-19T12:30:51.751Z,42.53
2023-05-19T12:34:56.046Z,40.85
2023-05-19T12:38:58.205Z,41.71
2023-05-19T12:43:00.357Z,41.70
2023-05-19T12:47:05.018Z,41.75
2023-05-19T12:51:07.380Z,40.93
2023-05-19T12:55:11.609Z,40.84
2023-05-19T12:59:27.160Z,40.02
2023-05-19T13:03:43.863Z,40.82
2023-05-19T13:08:05.406Z,40.79
2023-05-19T13:12:07.634Z,41.30
2023-05-19T13:16:09.662Z,42.34
2023-05-19T13:20:13.002Z,41.79
2023-05-19T13:24:15.065Z,41.93
2023-05-19T13:28:17.167Z,42.38
2023-05-19T13:32:19.232Z,42.94
2023-05-19T13:36:21.260Z,43.36
2023-05-19T13:40:24.111Z,43.49
2023-05-19T13:44:26.195Z,42.90
2023-05-19T13:48:28.246Z,43.75
2023-05-19T13:52:30.682Z,44.11
2023-05-19T13:56:32.760Z,42.93
2023-05-19T14:00:36.325Z,42.80
2023-05-19T14:04:39.725Z,43.24
2023-05-19T14:08:42.297Z,43.07
2023-05-19T14:13:08.033Z,43.49
2023-05-19T14:17:06.423Z,43.85
2023-05-19T14:21:08.752Z,44.85
2023-05-19T14:25:10.987Z,44.56
2023-05-19T14:29:13.160Z,44.12
2023-05-19T14:33:15.237Z,44.40
2023-05-19T14:37:17.364Z,43.63
2023-05-19T14:41:19.411Z,43.71
2023-05-19T14:45:21.548Z,43.85
2023-05-19T14:49:23.643Z,42.94
2023-05-19T14:53:25.849Z,43.92
2023-05-19T14:57:27.963Z,43.90
2023-05-19T15:01:30.212Z,44.16
2023-05-19T15:05:32.336Z,44.66
2023-05-19T15:09:34.421Z,44.54
2023-05-19T15:13:36.457Z,44.10
2023-05-19T15:17:38.799Z,45.26
2023-05-19T15:21:41.163Z,45.38
2023-05-19T15:25:45.402Z,44.96
2023-05-19T15:29:47.457Z,44.76
2023-05-19T15:33:49.945Z,45.13
2023-05-19T15:37:52.120Z,44.57
2023-05-19T15:41:54.134Z,44.54
2023-05-19T15:45:56.214Z,43.17
2023-05-19T15:49:58.454Z,43.27
2023-05-19T15:54:01.652Z,43.60
2023-05-19T15:58:03.723Z,43.49
2023-05-19T16:02:06.033Z,43.33
2023-05-19T16:06:08.088Z,43.00
2023-05-19T16:10:10.213Z,42.05
2023-05-19T16:14:12.336Z,41.66
2023-05-19T16:18:15.925Z,43.00
2023-05-19T16:22:18.225Z,42.07
2023-05-19T16:26:21.554Z,42.88
2023-05-19T16:30:24.615Z,42.57
2023-05-19T16:34:28.482Z,40.93
2023-05-19T16:38:30.865Z,41.44
2023-05-19T16:42:32.905Z,40.76
2023-05-19T16:46:35.312Z,41.77
2023-05-19T16:50:37.630Z,41.83
2023-05-19T16:54:39.957Z,41.91
2023-05-19T16:58:42.010Z,40.71
2023-05-19T17:02:44.246Z,41.11
2023-05-19T17:06:46.415Z,42.00
2023-05-19T17:10:48.441Z,42.73
2023-05-19T17:14:52.070Z,43.40
2023-05-19T17:18:54.188Z,43.00
2023-05-19T17:22:56.530Z,42.88
2023-05-19T17:26:59.882Z,43.63
2023-05-19T17:31:08.540Z,43.78
2023-05-19T17:35:10.616Z,43.82
2023-05-19T17:39:12.664Z,44.09
2023-05-19T17:43:14.705Z,44.63
2023-05-19T17:47:16.716Z,44.96
2023-05-19T17:51:18.972Z,44.48
2023-05-19T17:55:21.423Z,45.49
2023-05-19T17:59:23.785Z,45.57
2023-05-19T18:03:26.520Z,45.12
2023-05-19T18:07:29.215Z,45.17
2023-05-19T18:11:31.314Z,45.17
2023-05-19T18:15:33.583Z,45.40
2023-05-19T18:19:35.730Z,44.85
2023-05-19T18:23:37.782Z,43.87
2023-05-19T18:27:39.871Z,44.37
2023-05-19T18:31:42.010Z,44.21
2023-05-19T18:35:44.098Z,44.32
2023-05-19T18:39:46.752Z,44.83
2023-05-19T18:43:48.762Z,45.14
2023-05-19T18:47:50.850Z,45.46
2023-05-19T18:51:52.933Z,45.67
2023-05-19T18:55:55.016Z,46.05
2023-05-19T18:59:57.037Z,45.98
2023-05-19T19:03:59.600Z,47.13
2023-05-19T19:08:05.513Z,47.83
2023-05-19T19:12:07.575Z,48.36
2023-05-19T19:16:09.628Z,49.27
2023-05-19T19:20:12.255Z,49.77
2023-05-19T19:24:14.362Z,50.53
2023-05-19T19:28:16.394Z,51.10
2023-05-19T19:32:18.437Z,52.06
2023-05-19T19:36:20.465Z,52.65
2023-05-19T19:40:22.520Z,52.60
2023-05-19T19:44:24.611Z,53.13
2023-05-19T19:48:27.852Z,52.93
2023-05-19T19:52:29.867Z,53.12
2023-05-19T19:56:32.000Z,53.20
2023-05-19T20:00:34.391Z,53.27
2023-05-19T20:04:36.758Z,53.61
2023-05-19T20:08:38.820Z,54.08
2023-05-19T20:12:41.524Z,54.80
2023-05-19T20:16:43.743Z,55.02
2023-05-19T20:20:45.884Z,55.28
2023-05-19T20:24:47.936Z,55.60
2023-05-19T20:28:49.996Z,55.59
2023-05-19T20:32:52.192Z,55.04
2023-05-19T20:36:54.322Z,55.09
2023-05-19T20:40:56.485Z,55.20
2023-05-19T20:44:59.073Z,55.12
2023-05-19T20:49:01.263Z,55.17
2023-05-19T20:53:03.343Z,55.12
2023-05-19T20:57:09.034Z,55.48
2023-05-19T21:01:11.300Z,56.05
2023-05-19T21:05:18.883Z,56.27
2023-05-19T21:09:21.939Z,56.68
2023-05-19T21:13:24.294Z,57.07
2023-05-19T21:17:26.792Z,57.79
2023-05-19T21:21:29.009Z,58.11
2023-05-19T21:25:31.685Z,58.58
2023-05-19T21:29:33.820Z,59.22
2023-05-19T21:33:35.939Z,59.78
2023-05-19T21:37:38.033Z,60.14
2023-05-19T21:41:40.060Z,60.43
2023-05-19T21:45:42.142Z,61.32
2023-05-19T21:49:44.213Z,61.51
2023-05-19T21:53:49.358Z,61.77
2023-05-19T21:57:51.447Z,61.99
2023-05-19T22:01:53.790Z,62.34
2023-05-19T22:05:56.285Z,62.48
2023-05-19T22:09:58.379Z,63.07
2023-05-19T22:14:00.416Z,63.43
2023-05-19T22:18:02.564Z,63.79
2023-05-19T22:22:12.977Z,63.72
2023-05-19T22:26:16.165Z,63.99
2023-05-19T22:30:18.337Z,64.34
2023-05-19T22:34:20.588Z,64.79
2023-05-19T22:38:22.687Z,64.97
2023-05-19T22:42:24.791Z,65.31
2023-05-19T22:46:27.053Z,64.73
2023-05-19T22:50:29.207Z,64.76
2023-05-19T22:54:31.472Z,64.69
2023-05-19T22:58:33.690Z,64.87
2023-05-19T23:02:35.891Z,65.17
2023-05-19T23:06:37.952Z,64.92
2023-05-19T23:10:39.982Z,64.91
2023-05-19T23:14:42.039Z,64.67
2023-05-19T23:18:44.275Z,64.64
2023-05-19T23:22:46.601Z,64.92
2023-05-19T23:26:48.667Z,65.60
2023-05-19T23:30:53.412Z,65.88
2023-05-19T23:34:55.538Z,66.25
2023-05-19T23:38:57.586Z,66.47
2023-05-19T23:42:59.629Z,66.93
2023-05-19T23:47:01.826Z,67.25
2023-05-19T23:51:04.051Z,67.25
2023-05-19T23:55:07.388Z,67.78
2023-05-19T23:59:09.463Z,68.17
